createdAt,value
2019-04-23T00:00:20.429Z,16.00
2019-04-23T00:02:25.152Z,16.00
2019-04-23T00:03:21.506Z,16.00
2019-04-23T00:04:20.154Z,16.00
2019-04-23T00:05:38.082Z,16.00
2019-04-23T00:07:35.702Z,16.00
2019-04-23T00:08:39.031Z,16.00
2019-04-23T00:09:36.883Z,16.00
2019-04-23T00:10:26.095Z,16.00
2019-04-23T00:11:25.544Z,16.00
2019-04-23T00:12:32.737Z,16.00
2019-04-23T00:13:22.826Z,16.00
2019-04-23T00:14:35.429Z,16.00
2019-04-23T00:15:17.037Z,16.00
2019-04-23T00:16:27.666Z,16.00
2019-04-23T00:17:33.502Z,16.00
2019-04-23T00:18:30.123Z,16.00
2019-04-23T00:19:27.694Z,16.00
2019-04-23T00:20:20.632Z,16.00
2019-04-23T00:21:23.550Z,16.00
2019-04-23T00:22:20.202Z,16.00
2019-04-23T00:23:25.309Z,16.00
2019-04-23T00:24:28.434Z,16.00
2019-04-23T00:27:29.266Z,16.00
2019-04-23T00:29:33.264Z,16.00
2019-04-23T00:30:26.772Z,16.00
2019-04-23T00:31:24.705Z,16.00
2019-04-23T00:33:25.578Z,16.00
2019-04-23T00:34:28.430Z,16.00
2019-04-23T00:35:18.147Z,16.00
2019-04-23T00:36:26.008Z,16.00
2019-04-23T00:39:23.434Z,16.00
2019-04-23T00:40:35.774Z,16.00
2019-04-23T00:41:29.657Z,16.00
2019-04-23T00:43:22.999Z,16.00
2019-04-23T00:44:29.741Z,16.00
2019-04-23T00:45:25.693Z,16.00
2019-04-23T00:46:22.173Z,16.00
2019-04-23T00:47:25.351Z,16.00
2019-04-23T00:48:28.239Z,16.00
2019-04-23T00:49:27.063Z,16.00
2019-04-23T00:51:27.142Z,16.00
2019-04-23T00:53:34.277Z,16.00
2019-04-23T00:54:44.350Z,16.00
2019-04-23T00:55:26.537Z,16.00
2019-04-23T00:57:25.817Z,16.00
2019-04-23T00:58:31.995Z,16.00
2019-04-23T00:59:20.989Z,16.00
2019-04-23T01:00:28.403Z,16.00
2019-04-23T01:01:31.776Z,16.00
2019-04-23T01:02:24.028Z,16.00
2019-04-23T01:03:33.802Z,16.00
2019-04-23T01:04:28.243Z,16.00
2019-04-23T01:05:24.790Z,16.00
2019-04-23T01:07:29.201Z,16.00
2019-04-23T01:09:24.095Z,16.00
2019-04-23T01:10:20.540Z,16.00
2019-04-23T01:11:31.737Z,20.00
2019-04-23T01:12:22.852Z,16.00
2019-04-23T01:13:34.480Z,16.00
2019-04-23T01:14:21.519Z,20.00
2019-04-23T01:15:28.912Z,20.00
2019-04-23T01:16:32.956Z,20.00
2019-04-23T01:17:35.258Z,20.00
2019-04-23T01:18:32.568Z,20.00
2019-04-23T01:19:24.407Z,20.00
2019-04-23T01:20:24.142Z,20.00
2019-04-23T01:21:01.068Z,20.00
2019-04-23T01:22:00.149Z,20.00
2019-04-23T01:22:59.510Z,16.00
2019-04-23T01:24:04.672Z,16.00
2019-04-23T01:25:11.064Z,16.00
2019-04-23T01:26:20.998Z,16.00
2019-04-23T01:27:47.422Z,20.00
2019-04-23T01:28:38.275Z,20.00
2019-04-23T01:29:28.982Z,20.00
2019-04-23T01:30:19.850Z,20.00
2019-04-23T01:31:27.141Z,20.00
2019-04-23T01:32:28.547Z,20.00
2019-04-23T01:33:34.907Z,20.00
2019-04-23T01:34:31.420Z,20.00
2019-04-23T01:35:25.407Z,20.00
2019-04-23T01:36:25.341Z,20.00
2019-04-23T01:37:26.848Z,20.00
2019-04-23T01:38:27.963Z,24.00
2019-04-23T01:39:24.454Z,24.00
2019-04-23T01:41:26.539Z,24.00
2019-04-23T01:42:40.456Z,24.00
2019-04-23T01:43:32.292Z,28.00
2019-04-23T01:44:30.173Z,28.00
2019-04-23T01:45:25.275Z,28.00
2019-04-23T01:46:33.821Z,28.00
2019-04-23T01:47:25.002Z,28.00
2019-04-23T01:48:26.142Z,32.00
2019-04-23T01:49:30.714Z,36.00
2019-04-23T01:50:43.367Z,36.00
2019-04-23T01:51:26.479Z,40.00
2019-04-23T01:52:36.316Z,40.00
2019-04-23T01:53:28.358Z,40.00
2019-04-23T01:54:26.147Z,44.00
2019-04-23T01:55:27.971Z,48.00
2019-04-23T01:56:24.298Z,52.00
2019-04-23T01:57:35.338Z,56.00
2019-04-23T01:59:26.322Z,68.00
2019-04-23T02:00:30.628Z,72.00
2019-04-23T02:01:29.526Z,84.00
2019-04-23T02:02:29.838Z,88.00
2019-04-23T02:03:32.509Z,100.00
2019-04-23T02:06:28.167Z,136.00
2019-04-23T02:07:33.031Z,152.00
2019-04-23T02:08:40.202Z,168.00
2019-04-23T02:09:25.284Z,188.00
2019-04-23T02:10:39.542Z,212.00
2019-04-23T02:11:25.694Z,240.00
2019-04-23T02:12:25.911Z,260.00
2019-04-23T02:13:38.334Z,288.00
2019-04-23T02:14:29.673Z,312.00
2019-04-23T02:15:33.170Z,336.00
2019-04-23T02:17:31.619Z,388.00
2019-04-23T02:18:20.633Z,412.00
2019-04-23T02:19:33.333Z,440.00
2019-04-23T02:20:39.206Z,468.00
2019-04-23T02:21:23.935Z,488.00
2019-04-23T02:22:31.017Z,516.00
2019-04-23T02:23:28.110Z,540.00
2019-04-23T02:24:27.816Z,568.00
2019-04-23T02:25:39.639Z,600.00
2019-04-23T02:26:30.932Z,632.00
2019-04-23T02:27:29.624Z,648.00
2019-04-23T02:28:25.454Z,688.00
2019-04-23T02:29:36.347Z,736.00
2019-04-23T02:30:54.698Z,784.00
2019-04-23T02:32:40.269Z,888.00
2019-04-23T02:33:34.485Z,940.00
2019-04-23T02:34:40.971Z,996.00
2019-04-23T02:36:34.966Z,1100.00
2019-04-23T02:37:47.704Z,1156.00
2019-04-23T02:38:42.943Z,1220.00
2019-04-23T02:39:40.137Z,1276.00
2019-04-23T02:40:49.577Z,1344.00
2019-04-23T02:43:26.579Z,1540.00
2019-04-23T02:44:39.661Z,1600.00
2019-04-23T02:45:45.464Z,1664.00
2019-04-23T02:46:22.589Z,1724.00
2019-04-23T02:47:31.865Z,1792.00
2019-04-23T02:49:47.070Z,1948.00
2019-04-23T02:52:31.042Z,2220.00
2019-04-23T02:53:57.915Z,2316.00
2019-04-23T02:57:39.683Z,2636.00
2019-04-23T02:59:39.963Z,2788.00
2019-04-23T03:00:39.944Z,2852.00
2019-04-23T03:01:31.589Z,2908.00
2019-04-23T03:02:54.727Z,2972.00
2019-04-23T03:03:33.542Z,3036.00
2019-04-23T03:04:35.751Z,3100.00
2019-04-23T03:05:36.436Z,3168.00
2019-04-23T03:06:38.999Z,3240.00
2019-04-23T03:07:40.992Z,3316.00
2019-04-23T03:08:32.990Z,3388.00
2019-04-23T03:09:47.755Z,3468.00
2019-04-23T03:10:32.100Z,3544.00
2019-04-23T03:11:34.494Z,3628.00
2019-04-23T03:12:37.935Z,3708.00
2019-04-23T03:14:32.988Z,3868.00
2019-04-23T03:16:51.463Z,4020.00
2019-04-23T03:17:32.289Z,4100.00
2019-04-23T03:20:35.051Z,4348.00
2019-04-23T03:21:42.569Z,4432.00
2019-04-23T03:22:35.611Z,4516.00
2019-04-23T03:24:36.511Z,4680.00
2019-04-23T03:26:55.596Z,4840.00
2019-04-23T03:28:38.249Z,5004.00
2019-04-23T03:31:21.497Z,5172.00
2019-04-23T03:32:59.933Z,5256.00
2019-04-23T03:34:34.978Z,5340.00
2019-04-23T03:37:03.344Z,5772.00
2019-04-23T03:38:45.277Z,6180.00
2019-04-23T03:39:40.148Z,8168.00
2019-04-23T03:40:27.624Z,12180.00
2019-04-23T03:42:40.456Z,21056.00
2019-04-23T03:43:33.694Z,23648.00
2019-04-23T03:44:39.772Z,22336.00
2019-04-23T03:46:36.637Z,24960.00
2019-04-23T03:47:32.517Z,25184.00
2019-04-23T03:48:41.673Z,25760.00
2019-04-23T03:49:41.211Z,26624.00
2019-04-23T03:51:38.403Z,27680.00
2019-04-23T03:52:35.460Z,27744.00
2019-04-23T03:53:54.276Z,28416.00
2019-04-23T03:57:40.239Z,30816.00
2019-04-23T04:01:29.854Z,31808.00
2019-04-23T04:02:44.050Z,32480.00
2019-04-23T04:04:03.832Z,32032.00
2019-04-23T04:05:42.259Z,32352.00
2019-04-23T04:06:45.605Z,33920.00
2019-04-23T04:07:38.175Z,34112.00
2019-04-23T04:08:31.328Z,33888.00
2019-04-23T04:09:34.852Z,34368.00
2019-04-23T04:10:41.600Z,35040.00
2019-04-23T04:14:42.204Z,36064.00
2019-04-23T04:16:34.191Z,36288.00
2019-04-23T04:17:37.121Z,36544.00
2019-04-23T04:18:38.707Z,37600.00
2019-04-23T04:20:40.293Z,37536.00
2019-04-23T04:21:49.421Z,38048.00
2019-04-23T04:22:37.368Z,38496.00
2019-04-23T04:23:41.042Z,38112.00
2019-04-23T04:24:37.346Z,38208.00
2019-04-23T04:25:37.076Z,38976.00
2019-04-23T04:26:49.241Z,38048.00
2019-04-23T04:27:36.818Z,37504.00
2019-04-23T04:28:44.514Z,38272.00
2019-04-23T04:29:39.744Z,39136.00
2019-04-23T04:30:35.818Z,38496.00
2019-04-23T04:31:45.602Z,38688.00
2019-04-23T04:33:51.118Z,37120.00
2019-04-23T04:35:00.304Z,36896.00
2019-04-23T04:35:38.578Z,37440.00
2019-04-23T04:36:28.099Z,37344.00
2019-04-23T04:37:46.269Z,36512.00
2019-04-23T04:39:33.474Z,36320.00
2019-04-23T04:41:34.382Z,36480.00
2019-04-23T04:42:33.289Z,35744.00
2019-04-23T04:43:41.651Z,35424.00
2019-04-23T04:44:42.692Z,36000.00
2019-04-23T04:45:43.208Z,37248.00
2019-04-23T04:46:39.950Z,36512.00
2019-04-23T04:47:36.279Z,34944.00
2019-04-23T04:48:56.539Z,34688.00
2019-04-23T04:50:26.262Z,34304.00
2019-04-23T04:52:44.792Z,31456.00
2019-04-23T04:53:47.428Z,31744.00
2019-04-23T04:54:22.867Z,31136.00
2019-04-23T04:56:38.354Z,30688.00
2019-04-23T04:58:32.269Z,25280.00
2019-04-23T04:59:53.910Z,17568.00
2019-04-23T05:01:54.190Z,13188.00
2019-04-23T05:02:39.143Z,13176.00
2019-04-23T05:03:28.479Z,13520.00
2019-04-23T05:04:39.850Z,14416.00
2019-04-23T05:06:02.462Z,14388.00
2019-04-23T05:06:39.114Z,13992.00
2019-04-23T05:08:39.661Z,13624.00
2019-04-23T05:09:42.068Z,13732.00
2019-04-23T05:11:40.888Z,15056.00
2019-04-23T05:12:27.510Z,16224.00
2019-04-23T05:14:36.766Z,18080.00
2019-04-23T05:15:23.380Z,24672.00
2019-04-23T05:16:29.458Z,32896.00
2019-04-23T05:17:32.324Z,31488.00
2019-04-23T05:18:47.470Z,25024.00
2019-04-23T05:19:43.958Z,23744.00
2019-04-23T05:20:32.963Z,24416.00
2019-04-23T05:21:33.140Z,24736.00
2019-04-23T05:22:33.774Z,24448.00
2019-04-23T05:24:28.744Z,19776.00
2019-04-23T05:25:28.095Z,18560.00
2019-04-23T05:26:25.024Z,19552.00
2019-04-23T05:27:37.530Z,21632.00
2019-04-23T05:28:50.525Z,19424.00
2019-04-23T05:29:33.823Z,16672.00
2019-04-23T05:30:34.943Z,16800.00
2019-04-23T05:31:23.296Z,17248.00
2019-04-23T05:32:26.470Z,18304.00
2019-04-23T05:33:22.395Z,19680.00
2019-04-23T05:34:20.984Z,19136.00
2019-04-23T05:35:33.337Z,17440.00
2019-04-23T05:36:44.141Z,17632.00
2019-04-23T05:37:37.099Z,17856.00
2019-04-23T05:38:37.456Z,16864.00
2019-04-23T05:39:30.191Z,16544.00
2019-04-23T05:42:26.144Z,17248.00
2019-04-23T05:43:26.141Z,16992.00
2019-04-23T05:44:30.741Z,16704.00
2019-04-23T05:45:21.945Z,16736.00
2019-04-23T05:46:26.439Z,16416.00
2019-04-23T05:47:29.307Z,17056.00
2019-04-23T05:48:23.454Z,17408.00
2019-04-23T05:49:26.130Z,17408.00
2019-04-23T05:50:35.630Z,17792.00
2019-04-23T05:51:28.005Z,17440.00
2019-04-23T05:52:27.899Z,17856.00
2019-04-23T05:53:27.014Z,17952.00
2019-04-23T05:54:27.719Z,17504.00
2019-04-23T05:55:25.095Z,17728.00
2019-04-23T05:56:27.825Z,17952.00
2019-04-23T05:57:19.813Z,18656.00
2019-04-23T05:58:37.813Z,18240.00
2019-04-23T05:59:26.262Z,18240.00
2019-04-23T06:00:28.787Z,20352.00
2019-04-23T06:01:51.147Z,22496.00
2019-04-23T06:02:26.763Z,21632.00
2019-04-23T06:03:25.641Z,21824.00
2019-04-23T06:04:24.737Z,26080.00
2019-04-23T06:05:25.065Z,24704.00
2019-04-23T06:06:29.432Z,24000.00
2019-04-23T06:08:32.095Z,28768.00
2019-04-23T06:09:28.716Z,31968.00
2019-04-23T06:10:29.045Z,36416.00
2019-04-23T06:11:28.139Z,38784.00
2019-04-23T06:12:21.366Z,39808.00
2019-04-23T06:13:26.959Z,34016.00
2019-04-23T06:14:29.086Z,26464.00
2019-04-23T06:15:29.033Z,22208.00
2019-04-23T06:16:31.547Z,19488.00
2019-04-23T06:17:24.198Z,17664.00
2019-04-23T06:19:32.936Z,16164.00
2019-04-23T06:20:31.504Z,16116.00
2019-04-23T06:21:30.905Z,16240.00
2019-04-23T06:22:30.128Z,15764.00
2019-04-23T06:23:30.276Z,14628.00
2019-04-23T06:24:26.059Z,13528.00
2019-04-23T06:25:42.208Z,12596.00
2019-04-23T06:26:33.126Z,12064.00
2019-04-23T06:29:32.154Z,11252.00
2019-04-23T06:30:26.545Z,11020.00
2019-04-23T06:31:30.862Z,10880.00
2019-04-23T06:32:24.262Z,10816.00
2019-04-23T06:33:25.639Z,10836.00
2019-04-23T06:34:39.710Z,10848.00
2019-04-23T06:35:22.419Z,10884.00
2019-04-23T06:36:30.761Z,10900.00
2019-04-23T06:37:36.120Z,10972.00
2019-04-23T06:38:41.035Z,11020.00
2019-04-23T06:39:24.219Z,10960.00
2019-04-23T06:40:22.203Z,10608.00
2019-04-23T06:41:21.255Z,10164.00
2019-04-23T06:42:18.008Z,10024.00
2019-04-23T06:43:24.291Z,9504.00
2019-04-23T06:45:25.340Z,9748.00
2019-04-23T06:46:19.981Z,9676.00
2019-04-23T06:47:20.075Z,9632.00
2019-04-23T06:49:26.417Z,9560.00
2019-04-23T06:50:19.249Z,9680.00
2019-04-23T06:51:31.108Z,9700.00
2019-04-23T06:53:21.487Z,9712.00
2019-04-23T06:54:27.689Z,9716.00
2019-04-23T06:55:20.378Z,9736.00
2019-04-23T06:56:26.900Z,9716.00
2019-04-23T06:57:22.083Z,9700.00
2019-04-23T06:58:32.677Z,9704.00
2019-04-23T06:59:24.458Z,9660.00
2019-04-23T07:00:41.321Z,9788.00
2019-04-23T07:01:18.689Z,9760.00
2019-04-23T07:02:30.881Z,10176.00
2019-04-23T07:03:31.807Z,10192.00
2019-04-23T07:04:32.757Z,10192.00
2019-04-23T07:05:23.794Z,10232.00
2019-04-23T07:06:33.047Z,10444.00
2019-04-23T07:08:32.476Z,10456.00
2019-04-23T07:09:13.505Z,10416.00
2019-04-23T07:10:25.233Z,10244.00
2019-04-23T07:11:27.096Z,10236.00
2019-04-23T07:12:30.982Z,10280.00
2019-04-23T07:13:31.583Z,10284.00
2019-04-23T07:14:21.899Z,10284.00
2019-04-23T07:15:33.839Z,10296.00
2019-04-23T07:16:28.270Z,10308.00
2019-04-23T07:17:21.193Z,10308.00
2019-04-23T07:18:27.708Z,10316.00
2019-04-23T07:20:28.336Z,10332.00
2019-04-23T07:21:23.562Z,10340.00
2019-04-23T07:22:21.655Z,10344.00
2019-04-23T07:23:35.717Z,10348.00
2019-04-23T07:24:24.510Z,10348.00
2019-04-23T07:26:30.340Z,10364.00
2019-04-23T07:27:29.675Z,10372.00
2019-04-23T07:28:34.995Z,10372.00
2019-04-23T07:29:27.614Z,10376.00
2019-04-23T07:30:24.398Z,10404.00
2019-04-23T07:31:35.303Z,10408.00
2019-04-23T07:32:23.454Z,10416.00
2019-04-23T07:33:32.688Z,10400.00
2019-04-23T07:34:18.071Z,10388.00
2019-04-23T07:35:15.820Z,10408.00
2019-04-23T07:37:29.690Z,10400.00
2019-04-23T07:38:32.652Z,10400.00
2019-04-23T07:39:25.516Z,10396.00
2019-04-23T07:40:27.185Z,10404.00
2019-04-23T07:41:32.601Z,10400.00
2019-04-23T07:42:32.472Z,10360.00
2019-04-23T07:43:20.208Z,10288.00
2019-04-23T07:44:28.302Z,10412.00
2019-04-23T07:45:24.016Z,10368.00
2019-04-23T07:46:33.788Z,10380.00
2019-04-23T07:47:28.426Z,10388.00
2019-04-23T07:48:28.859Z,10380.00
2019-04-23T07:49:23.748Z,10388.00
2019-04-23T07:51:29.380Z,10380.00
2019-04-23T07:52:33.742Z,10388.00
2019-04-23T07:53:23.351Z,10412.00
2019-04-23T07:54:36.379Z,10392.00
2019-04-23T07:55:43.380Z,10404.00
2019-04-23T07:56:25.570Z,10416.00
2019-04-23T07:58:25.714Z,10400.00
2019-04-23T07:59:25.156Z,10356.00
2019-04-23T08:00:27.700Z,10368.00
2019-04-23T08:01:22.383Z,10368.00
2019-04-23T08:02:51.525Z,10360.00
2019-04-23T08:03:39.794Z,10356.00
2019-04-23T08:04:29.601Z,10380.00
2019-04-23T08:06:19.273Z,10384.00
2019-04-23T08:07:27.130Z,10420.00
2019-04-23T08:08:21.445Z,10400.00
2019-04-23T08:09:30.104Z,10396.00
2019-04-23T08:10:20.988Z,10408.00
2019-04-23T08:11:40.414Z,10400.00
2019-04-23T08:12:25.571Z,10392.00
2019-04-23T08:13:37.847Z,10368.00
2019-04-23T08:14:15.080Z,10332.00
2019-04-23T08:15:21.360Z,10480.00
2019-04-23T08:17:22.435Z,10488.00
2019-04-23T08:18:29.682Z,10496.00
2019-04-23T08:19:25.300Z,10508.00
2019-04-23T08:20:23.062Z,10504.00
2019-04-23T08:21:40.166Z,10516.00
2019-04-23T08:22:28.773Z,10512.00
2019-04-23T08:23:26.145Z,10504.00
2019-04-23T08:24:17.025Z,10508.00
2019-04-23T08:25:26.433Z,10508.00
2019-04-23T08:26:34.680Z,10508.00
2019-04-23T08:27:27.877Z,10512.00
2019-04-23T08:28:35.165Z,10508.00
2019-04-23T08:29:22.195Z,10508.00
2019-04-23T08:30:17.379Z,10504.00
2019-04-23T08:31:27.511Z,10516.00
2019-04-23T08:33:47.233Z,10520.00
2019-04-23T08:34:30.951Z,10536.00
2019-04-23T08:35:19.694Z,10520.00
2019-04-23T08:36:27.274Z,10528.00
2019-04-23T08:37:32.457Z,10528.00
2019-04-23T08:38:29.464Z,10540.00
2019-04-23T08:39:28.657Z,10516.00
2019-04-23T08:40:27.659Z,10532.00
2019-04-23T08:41:28.155Z,10524.00
2019-04-23T08:44:42.239Z,10432.00
2019-04-23T08:45:24.170Z,10504.00
2019-04-23T08:46:24.667Z,10520.00
2019-04-23T08:47:23.222Z,10488.00
2019-04-23T08:49:29.061Z,10492.00
2019-04-23T08:50:21.587Z,10492.00
2019-04-23T08:51:40.545Z,10496.00
2019-04-23T08:54:41.295Z,10496.00
2019-04-23T08:56:27.831Z,10436.00
2019-04-23T08:57:25.940Z,10448.00
2019-04-23T08:58:27.303Z,10400.00
2019-04-23T08:59:33.239Z,10424.00
2019-04-23T09:00:24.868Z,10448.00
2019-04-23T09:01:48.040Z,10336.00
2019-04-23T09:02:30.586Z,10084.00
2019-04-23T09:03:25.366Z,10268.00
2019-04-23T09:04:42.043Z,10240.00
2019-04-23T09:05:26.242Z,10284.00
2019-04-23T09:06:24.478Z,10180.00
2019-04-23T09:09:29.157Z,10220.00
2019-04-23T09:10:29.941Z,10228.00
2019-04-23T09:11:39.683Z,10252.00
2019-04-23T09:12:24.211Z,10236.00
2019-04-23T09:14:09.014Z,10140.00
2019-04-23T09:15:33.484Z,10136.00
2019-04-23T09:16:22.289Z,10200.00
2019-04-23T09:17:28.941Z,10172.00
2019-04-23T09:18:24.992Z,10192.00
2019-04-23T09:19:23.995Z,10156.00
2019-04-23T09:21:23.956Z,10112.00
2019-04-23T09:23:28.337Z,10092.00
2019-04-23T09:24:21.564Z,10152.00
2019-04-23T09:25:28.451Z,10156.00
2019-04-23T09:26:13.789Z,10148.00
2019-04-23T09:29:30.540Z,10264.00
2019-04-23T09:30:28.492Z,10264.00
2019-04-23T09:31:38.612Z,10124.00
2019-04-23T09:33:25.859Z,10232.00
2019-04-23T09:34:20.461Z,10240.00
2019-04-23T09:35:34.001Z,10228.00
2019-04-23T09:37:28.640Z,10220.00
2019-04-23T09:39:20.627Z,10192.00
2019-04-23T09:40:56.072Z,10184.00
2019-04-23T09:41:22.355Z,10180.00
2019-04-23T09:42:31.923Z,10156.00
2019-04-23T09:43:19.751Z,10160.00
2019-04-23T09:44:41.091Z,10160.00
2019-04-23T09:45:23.166Z,10156.00
2019-04-23T09:46:23.585Z,10140.00
2019-04-23T09:47:26.347Z,10136.00
2019-04-23T09:48:18.368Z,10120.00
2019-04-23T09:49:31.135Z,10116.00
2019-04-23T09:50:20.190Z,10120.00
2019-04-23T09:51:24.155Z,10124.00
2019-04-23T09:52:27.201Z,10128.00
2019-04-23T09:53:25.299Z,10112.00
2019-04-23T09:54:27.223Z,10120.00
2019-04-23T09:55:34.568Z,10108.00
2019-04-23T09:56:22.091Z,10092.00
2019-04-23T09:57:20.447Z,10108.00
2019-04-23T09:58:15.135Z,10084.00
2019-04-23T09:59:34.162Z,10080.00
2019-04-23T10:01:23.517Z,10064.00
2019-04-23T10:02:20.058Z,10044.00
2019-04-23T10:03:10.254Z,10032.00
2019-04-23T10:04:08.692Z,10028.00
2019-04-23T10:05:10.417Z,10012.00
2019-04-23T10:06:14.922Z,10028.00
2019-04-23T10:07:05.397Z,10008.00
2019-04-23T10:08:05.162Z,10000.00
2019-04-23T10:08:58.655Z,9992.00
2019-04-23T10:09:55.482Z,9968.00
2019-04-23T10:10:55.398Z,9924.00
2019-04-23T10:11:55.398Z,9968.00
2019-04-23T10:12:55.760Z,10104.00
2019-04-23T10:13:54.792Z,10452.00
2019-04-23T10:15:03.309Z,10468.00
2019-04-23T10:15:55.534Z,10464.00
2019-04-23T10:16:53.661Z,10456.00
2019-04-23T10:17:54.205Z,10448.00
2019-04-23T10:18:55.035Z,9908.00
2019-04-23T10:19:55.138Z,9844.00
2019-04-23T10:20:54.337Z,9880.00
2019-04-23T10:21:53.599Z,9864.00
2019-04-23T10:22:54.588Z,9856.00
2019-04-23T10:23:55.066Z,9836.00
2019-04-23T10:24:55.101Z,9836.00
2019-04-23T10:25:54.086Z,9832.00
2019-04-23T10:26:53.562Z,9828.00
2019-04-23T10:28:00.632Z,9824.00
2019-04-23T10:28:55.977Z,9820.00
2019-04-23T10:29:54.192Z,9816.00
2019-04-23T10:30:54.618Z,9800.00
2019-04-23T10:31:53.725Z,9792.00
2019-04-23T10:32:55.729Z,9796.00
2019-04-23T10:33:53.688Z,9780.00
2019-04-23T10:35:05.237Z,9764.00
2019-04-23T10:36:00.851Z,9748.00
2019-04-23T10:38:10.884Z,9712.00
2019-04-23T10:39:15.505Z,9708.00
2019-04-23T10:40:13.193Z,9680.00
2019-04-23T10:41:09.942Z,9712.00
2019-04-23T10:42:16.106Z,9680.00
2019-04-23T10:43:09.261Z,9708.00
2019-04-23T10:44:09.056Z,9676.00
2019-04-23T10:45:22.490Z,9660.00
2019-04-23T10:46:32.566Z,9648.00
2019-04-23T10:47:38.613Z,9636.00
2019-04-23T10:48:41.472Z,9608.00
2019-04-23T10:51:49.465Z,9624.00
2019-04-23T10:52:47.204Z,9612.00
2019-04-23T10:53:37.948Z,9620.00
2019-04-23T10:54:42.048Z,9580.00
2019-04-23T10:55:44.795Z,9560.00
2019-04-23T10:56:42.576Z,9544.00
2019-04-23T10:57:31.216Z,9536.00
2019-04-23T10:58:35.210Z,9512.00
2019-04-23T11:00:37.531Z,9456.00
2019-04-23T11:01:45.151Z,9424.00
2019-04-23T11:02:50.437Z,9396.00
2019-04-23T11:04:52.406Z,9460.00
2019-04-23T11:06:44.285Z,9412.00
2019-04-23T11:08:38.609Z,9400.00
2019-04-23T11:10:33.899Z,9376.00
2019-04-23T11:11:38.044Z,9360.00
2019-04-23T11:12:46.420Z,9336.00
2019-04-23T11:16:01.504Z,9304.00
2019-04-23T11:16:58.190Z,9336.00
2019-04-23T11:20:26.105Z,9272.00
2019-04-23T11:20:58.651Z,9260.00
2019-04-23T11:22:07.188Z,9268.00
2019-04-23T11:22:50.931Z,9228.00
2019-04-23T11:24:00.063Z,9208.00
2019-04-23T11:25:20.383Z,9216.00
2019-04-23T11:25:48.636Z,9204.00
2019-04-23T11:26:57.960Z,9184.00
2019-04-23T11:28:02.908Z,9176.00
2019-04-23T11:28:51.076Z,9168.00
2019-04-23T11:30:00.241Z,9144.00
2019-04-23T11:31:09.044Z,9144.00
2019-04-23T11:32:19.353Z,9116.00
2019-04-23T11:33:03.445Z,9120.00
2019-04-23T11:34:01.133Z,9124.00
2019-04-23T11:35:24.195Z,9120.00
2019-04-23T11:36:22.176Z,9104.00
2019-04-23T11:39:00.506Z,9080.00
2019-04-23T11:40:03.960Z,9060.00
2019-04-23T11:40:55.536Z,9032.00
2019-04-23T11:42:32.328Z,9008.00
2019-04-23T11:43:06.124Z,8980.00
2019-04-23T11:43:53.413Z,8960.00
2019-04-23T11:44:56.470Z,8956.00
2019-04-23T11:53:10.108Z,8736.00
2019-04-23T11:54:10.867Z,8792.00
2019-04-23T11:55:35.768Z,9748.00
2019-04-23T11:56:33.466Z,8672.00
2019-04-23T11:59:16.336Z,8636.00
2019-04-23T12:00:18.351Z,8608.00
2019-04-23T12:01:26.131Z,8588.00
2019-04-23T12:02:05.396Z,8568.00
2019-04-23T12:03:02.846Z,8572.00
2019-04-23T12:04:18.624Z,8572.00
2019-04-23T12:05:20.575Z,8548.00
2019-04-23T12:06:12.372Z,8532.00
2019-04-23T12:08:18.846Z,8476.00
2019-04-23T12:09:22.234Z,8488.00
2019-04-23T12:11:50.328Z,8436.00
2019-04-23T12:13:14.966Z,8396.00
2019-04-23T12:14:24.058Z,8360.00
2019-04-23T12:16:20.443Z,8332.00
2019-04-23T12:17:24.679Z,8312.00
2019-04-23T12:18:11.089Z,8284.00
2019-04-23T12:19:35.119Z,8288.00
2019-04-23T12:20:12.972Z,8268.00
2019-04-23T12:21:13.401Z,8272.00
2019-04-23T12:22:16.525Z,8244.00
2019-04-23T12:23:34.165Z,8240.00
2019-04-23T12:24:24.752Z,8212.00
2019-04-23T12:25:19.781Z,8200.00
2019-04-23T12:26:34.210Z,8180.00
2019-04-23T12:27:14.089Z,8184.00
2019-04-23T12:28:23.330Z,8156.00
2019-04-23T12:29:25.619Z,8136.00
2019-04-23T12:31:09.891Z,8096.00
2019-04-23T12:32:23.927Z,8084.00
2019-04-23T12:33:15.074Z,8064.00
2019-04-23T12:34:14.737Z,8080.00
2019-04-23T12:36:14.613Z,8036.00
2019-04-23T12:37:15.081Z,8008.00
2019-04-23T12:38:13.946Z,7992.00
2019-04-23T12:39:11.361Z,7988.00
2019-04-23T12:40:15.680Z,7960.00
2019-04-23T12:41:13.792Z,7948.00
2019-04-23T12:42:39.130Z,7944.00
2019-04-23T12:43:13.351Z,7912.00
2019-04-23T12:44:08.361Z,7908.00
2019-04-23T12:46:05.367Z,7860.00
2019-04-23T12:48:33.906Z,7876.00
2019-04-23T12:49:22.142Z,7880.00
2019-04-23T12:50:38.353Z,7880.00
2019-04-23T12:51:09.055Z,7880.00
2019-04-23T12:52:11.709Z,7860.00
2019-04-23T12:53:12.477Z,7864.00
2019-04-23T12:54:20.584Z,7840.00
2019-04-23T12:55:19.319Z,7840.00
2019-04-23T12:56:12.771Z,7872.00
2019-04-23T12:57:18.503Z,7860.00
2019-04-23T12:58:21.989Z,7848.00
2019-04-23T12:59:23.797Z,7848.00
2019-04-23T13:00:14.963Z,7836.00
2019-04-23T13:01:09.943Z,7816.00
2019-04-23T13:02:22.912Z,7816.00
2019-04-23T13:03:08.711Z,7836.00
2019-04-23T13:04:11.612Z,7828.00
2019-04-23T13:05:11.614Z,7836.00
2019-04-23T13:06:08.957Z,7848.00
2019-04-23T13:07:19.221Z,7844.00
2019-04-23T13:08:30.617Z,7840.00
2019-04-23T13:09:21.866Z,7836.00
2019-04-23T13:10:09.158Z,7824.00
2019-04-23T13:11:06.864Z,7824.00
2019-04-23T13:12:20.819Z,7832.00
2019-04-23T13:14:17.376Z,7808.00
2019-04-23T13:15:14.057Z,7808.00
2019-04-23T13:16:22.403Z,7800.00
2019-04-23T13:17:22.710Z,7796.00
2019-04-23T13:18:15.400Z,7780.00
2019-04-23T13:19:26.325Z,7760.00
2019-04-23T13:20:14.846Z,7756.00
2019-04-23T13:21:29.985Z,7748.00
2019-04-23T13:23:16.887Z,7732.00
2019-04-23T13:24:10.944Z,7716.00
2019-04-23T13:25:12.640Z,7704.00
2019-04-23T13:26:04.076Z,7708.00
2019-04-23T13:27:12.021Z,7708.00
2019-04-23T13:29:11.832Z,7692.00
2019-04-23T13:30:39.020Z,7688.00
2019-04-23T13:32:15.241Z,7652.00
2019-04-23T13:34:14.827Z,7616.00
2019-04-23T13:35:24.312Z,7608.00
2019-04-23T13:37:11.296Z,7588.00
2019-04-23T13:38:20.188Z,7572.00
2019-04-23T13:39:14.746Z,7560.00
2019-04-23T13:40:09.371Z,7540.00
2019-04-23T13:41:17.039Z,7524.00
2019-04-23T13:42:15.199Z,7504.00
2019-04-23T13:43:14.889Z,7500.00
2019-04-23T13:44:02.661Z,7480.00
2019-04-23T13:45:31.059Z,7472.00
2019-04-23T13:47:25.882Z,7444.00
2019-04-23T13:49:07.369Z,7408.00
2019-04-23T13:50:17.876Z,7392.00
2019-04-23T13:51:14.293Z,7364.00
2019-04-23T13:52:24.400Z,7344.00
2019-04-23T13:53:22.264Z,7320.00
2019-04-23T13:55:24.355Z,7264.00
2019-04-23T13:56:11.146Z,7232.00
2019-04-23T13:58:15.061Z,7164.00
2019-04-23T13:59:19.469Z,7132.00
2019-04-23T14:00:35.299Z,7144.00
2019-04-23T14:01:28.045Z,7124.00
2019-04-23T14:02:17.636Z,7108.00
2019-04-23T14:03:09.656Z,7076.00
2019-04-23T14:04:16.184Z,7064.00
2019-04-23T14:07:19.794Z,7000.00
2019-04-23T14:08:14.196Z,6976.00
2019-04-23T14:09:14.459Z,6964.00
2019-04-23T14:12:13.671Z,6884.00
2019-04-23T14:13:34.706Z,6868.00
2019-04-23T14:14:39.179Z,6840.00
2019-04-23T14:15:09.839Z,6820.00
2019-04-23T14:16:10.319Z,6804.00
2019-04-23T14:17:19.787Z,6772.00
2019-04-23T14:18:19.666Z,6736.00
2019-04-23T14:19:21.478Z,6720.00
2019-04-23T14:20:13.768Z,6704.00
2019-04-23T14:21:15.962Z,6692.00
2019-04-23T14:23:12.921Z,6668.00
2019-04-23T14:26:16.996Z,6524.00
2019-04-23T14:27:14.337Z,6528.00
2019-04-23T14:29:10.274Z,6456.00
2019-04-23T14:30:31.395Z,6416.00
2019-04-23T14:32:22.401Z,6396.00
2019-04-23T14:33:17.461Z,6380.00
2019-04-23T14:35:18.281Z,6312.00
2019-04-23T14:36:12.551Z,6280.00
2019-04-23T14:37:11.899Z,6304.00
2019-04-23T14:39:12.147Z,6268.00
2019-04-23T14:40:17.282Z,6252.00